createdAt,value
2018-11-11T00:01:43.045Z,102.67
2018-11-11T00:04:13.498Z,102.90
2018-11-11T00:06:44.764Z,114.10
2018-11-11T00:09:31.008Z,91.27
2018-11-11T00:12:01.327Z,121.57
2018-11-11T00:14:31.546Z,105.63
2018-11-11T00:17:01.671Z,127.87
2018-11-11T00:19:31.774Z,123.93
2018-11-11T00:22:01.842Z,99.67
2018-11-11T00:24:31.907Z,87.53
2018-11-11T00:27:02.299Z,115.20
2018-11-11T00:29:32.438Z,119.03
2018-11-11T00:32:02.854Z,118.27
2018-11-11T00:34:33.032Z,88.23
2018-11-11T00:37:02.946Z,101.10
2018-11-11T00:39:33.103Z,87.63
2018-11-11T00:42:03.880Z,92.07
2018-11-11T00:44:33.911Z,101.57
2018-11-11T00:47:04.064Z,88.33
2018-11-11T00:49:33.932Z,119.43
2018-11-11T00:52:03.942Z,93.80
2018-11-11T00:54:33.943Z,101.77
2018-11-11T00:57:04.057Z,100.83
2018-11-11T00:59:34.127Z,132.13
2018-11-11T01:02:04.453Z,108.80
2018-11-11T01:04:34.468Z,121.93
2018-11-11T01:07:06.079Z,124.97
2018-11-11T01:09:36.237Z,114.03
2018-11-11T01:12:06.823Z,113.80
2018-11-11T01:14:36.978Z,100.80
2018-11-11T01:17:08.095Z,91.70
2018-11-11T01:19:38.419Z,80.40
2018-11-11T01:22:08.478Z,99.23
2018-11-11T01:24:38.629Z,81.70
2018-11-11T01:27:08.622Z,76.40
2018-11-11T01:29:38.618Z,88.57
2018-11-11T01:32:08.658Z,80.70
2018-11-11T01:34:38.739Z,97.93
2018-11-11T01:37:08.762Z,101.10
2018-11-11T01:39:38.834Z,85.07
2018-11-11T01:42:08.985Z,85.50
2018-11-11T01:44:39.081Z,65.10
2018-11-11T01:47:09.150Z,76.23
2018-11-11T01:49:40.473Z,72.47
2018-11-11T01:52:10.517Z,63.50
2018-11-11T01:54:40.871Z,67.33
2018-11-11T01:57:10.973Z,84.80
2018-11-11T01:59:41.020Z,57.57
2018-11-11T02:02:11.143Z,66.43
2018-11-11T02:04:41.311Z,78.47
2018-11-11T02:07:11.539Z,82.73
2018-11-11T02:09:41.886Z,75.43
2018-11-11T02:12:11.897Z,73.27
2018-11-11T02:14:41.993Z,68.77
2018-11-11T02:17:12.045Z,63.77
2018-11-11T02:19:42.636Z,70.97
2018-11-11T02:22:12.953Z,81.73
2018-11-11T02:24:42.860Z,81.70
2018-11-11T02:27:13.135Z,66.23
2018-11-11T02:29:43.411Z,73.43
2018-11-11T02:32:13.329Z,73.67
2018-11-11T02:34:43.463Z,62.27
2018-11-11T02:37:13.361Z,58.13
2018-11-11T02:39:43.434Z,71.43
2018-11-11T02:42:13.491Z,68.57
2018-11-11T02:44:43.743Z,65.63
2018-11-11T02:47:13.831Z,67.30
2018-11-11T02:49:43.940Z,48.83
2018-11-11T02:52:13.999Z,61.80
2018-11-11T02:54:44.091Z,58.57
2018-11-11T02:57:14.160Z,72.30
2018-11-11T02:59:44.281Z,84.80
2018-11-11T03:02:14.317Z,89.13
2018-11-11T03:04:45.089Z,71.97
2018-11-11T03:07:15.221Z,74.27
2018-11-11T03:09:45.306Z,104.53
2018-11-11T03:12:15.467Z,96.43
2018-11-11T03:14:45.253Z,89.93
2018-11-11T03:17:15.552Z,91.00
2018-11-11T03:19:45.827Z,92.57
2018-11-11T03:22:15.791Z,113.87
2018-11-11T03:24:45.925Z,127.23
2018-11-11T03:27:16.171Z,98.67
2018-11-11T03:29:46.092Z,119.50
2018-11-11T03:32:16.065Z,119.27
2018-11-11T03:34:46.104Z,138.20
2018-11-11T03:37:16.230Z,128.93
2018-11-11T03:39:46.376Z,107.70
2018-11-11T03:42:16.454Z,119.77
2018-11-11T03:44:46.788Z,112.00
2018-11-11T03:47:16.759Z,113.70
2018-11-11T03:49:46.814Z,86.10
2018-11-11T03:52:17.110Z,90.87
2018-11-11T03:54:47.301Z,95.40
2018-11-11T03:57:17.259Z,85.67
2018-11-11T03:59:47.151Z,93.27
2018-11-11T04:02:17.543Z,102.33
2018-11-11T04:04:47.593Z,101.33
2018-11-11T04:07:17.729Z,118.37
2018-11-11T04:09:48.000Z,102.77
2018-11-11T04:12:18.163Z,87.93
2018-11-11T04:14:49.270Z,109.07
2018-11-11T04:17:19.735Z,88.40
2018-11-11T04:19:50.451Z,92.80
2018-11-11T04:22:21.192Z,104.10
2018-11-11T04:24:52.428Z,124.17
2018-11-11T04:27:22.741Z,117.93
2018-11-11T04:29:52.694Z,139.07
2018-11-11T04:32:23.078Z,153.10
2018-11-11T04:34:53.379Z,148.33
2018-11-11T04:37:23.511Z,148.63
2018-11-11T04:39:53.598Z,158.10
2018-11-11T04:42:23.718Z,144.60
2018-11-11T04:44:53.824Z,167.97
2018-11-11T04:47:24.677Z,149.37
2018-11-11T04:49:54.737Z,143.27
2018-11-11T04:52:24.983Z,152.40
2018-11-11T04:54:55.222Z,154.33
2018-11-11T04:57:25.312Z,150.03
2018-11-11T04:59:55.384Z,144.73
2018-11-11T05:02:25.562Z,159.33
2018-11-11T05:04:55.977Z,147.80
2018-11-11T05:07:26.466Z,142.40
2018-11-11T05:09:56.481Z,123.03
2018-11-11T05:12:26.737Z,125.10
2018-11-11T05:14:56.922Z,100.77
2018-11-11T05:17:26.999Z,64.20
2018-11-11T05:19:57.404Z,53.40
2018-11-11T05:22:27.378Z,47.20
2018-11-11T05:24:57.501Z,39.37
2018-11-11T05:27:27.751Z,38.07
2018-11-11T05:29:58.197Z,38.40
2018-11-11T05:32:28.323Z,35.60
2018-11-11T05:34:58.817Z,23.53
2018-11-11T05:37:28.830Z,22.60
2018-11-11T05:39:59.987Z,23.30
2018-11-11T05:42:29.912Z,20.97
2018-11-11T05:44:59.993Z,25.17
2018-11-11T05:47:30.368Z,28.27
2018-11-11T05:50:00.676Z,25.70
2018-11-11T05:52:30.879Z,27.83
2018-11-11T05:55:00.901Z,26.60
2018-11-11T05:57:31.235Z,20.33
2018-11-11T06:00:01.438Z,21.47
2018-11-11T06:02:31.653Z,21.97
2018-11-11T06:05:01.611Z,17.17
2018-11-11T06:07:31.716Z,19.00
2018-11-11T06:10:01.814Z,14.80
2018-11-11T06:12:31.943Z,18.63
2018-11-11T06:15:01.999Z,20.20
2018-11-11T06:17:32.208Z,24.33
2018-11-11T06:20:03.040Z,31.40
2018-11-11T06:22:33.090Z,29.13
2018-11-11T06:25:03.802Z,30.23
2018-11-11T06:27:33.802Z,32.30
2018-11-11T06:30:04.001Z,31.37
2018-11-11T06:32:34.104Z,38.73
2018-11-11T06:35:04.713Z,32.43
2018-11-11T06:37:34.728Z,38.23
2018-11-11T06:40:06.965Z,57.80
2018-11-11T06:42:37.152Z,59.40
2018-11-11T06:45:08.794Z,65.83
2018-11-11T06:47:38.932Z,62.20
2018-11-11T06:50:10.056Z,59.07
2018-11-11T06:52:40.975Z,56.70
2018-11-11T06:55:11.436Z,53.77
2018-11-11T06:57:41.611Z,47.43
2018-11-11T07:00:14.630Z,49.30
2018-11-11T07:02:55.915Z,60.93
2018-11-11T07:05:26.158Z,61.83
2018-11-11T07:07:56.456Z,62.90
2018-11-11T07:10:26.634Z,45.83
2018-11-11T07:12:57.104Z,50.87
2018-11-11T07:15:27.273Z,65.17
2018-11-11T07:17:57.615Z,68.73
2018-11-11T07:20:27.703Z,55.00
2018-11-11T07:22:57.998Z,60.83
2018-11-11T07:25:28.158Z,50.37
2018-11-11T07:27:58.438Z,55.60
2018-11-11T07:30:28.659Z,51.10
2018-11-11T07:32:59.068Z,51.57
2018-11-11T07:35:29.253Z,43.03
2018-11-11T07:37:59.643Z,45.93
2018-11-11T07:40:29.647Z,63.23
2018-11-11T07:42:59.656Z,55.93
2018-11-11T07:45:29.773Z,53.23
2018-11-11T07:48:00.202Z,74.90
2018-11-11T07:50:30.515Z,77.13
2018-11-11T07:53:00.545Z,71.13
2018-11-11T07:55:30.697Z,74.10
2018-11-11T07:58:00.830Z,67.83
2018-11-11T08:00:31.307Z,57.83
2018-11-11T08:03:01.929Z,59.10
2018-11-11T08:05:32.146Z,55.93
2018-11-11T08:08:03.124Z,49.20
2018-11-11T08:10:43.744Z,58.60
2018-11-11T08:13:13.920Z,50.33
2018-11-11T08:15:44.134Z,53.47
2018-11-11T08:18:14.776Z,50.83
2018-11-11T08:20:46.097Z,52.73
2018-11-11T08:23:16.415Z,49.37
2018-11-11T08:25:47.687Z,53.70
2018-11-11T08:28:18.521Z,48.50
2018-11-11T08:30:49.981Z,51.10
2018-11-11T08:33:20.116Z,50.73
2018-11-11T08:35:50.376Z,45.77
2018-11-11T08:38:20.763Z,43.80
2018-11-11T08:40:51.049Z,43.80
2018-11-11T08:43:21.272Z,55.97
2018-11-11T08:45:51.418Z,44.07
2018-11-11T08:48:22.067Z,45.23
2018-11-11T08:50:51.940Z,46.03
2018-11-11T08:53:21.976Z,45.07
2018-11-11T08:55:52.418Z,46.20
2018-11-11T08:58:22.953Z,42.17
2018-11-11T09:00:53.690Z,44.50
2018-11-11T09:03:24.093Z,43.10
2018-11-11T09:05:54.343Z,39.40
2018-11-11T09:08:24.509Z,39.70
2018-11-11T09:10:54.625Z,44.37
2018-11-11T09:13:24.769Z,46.80
2018-11-11T09:15:54.835Z,51.43
2018-11-11T09:18:24.890Z,44.23
2018-11-11T09:20:55.117Z,40.87
2018-11-11T09:23:25.483Z,40.80
2018-11-11T09:25:55.589Z,41.87
2018-11-11T09:28:32.497Z,35.20
2018-11-11T09:31:03.456Z,36.30
2018-11-11T09:33:33.488Z,34.30
2018-11-11T09:36:03.467Z,36.50
2018-11-11T09:38:33.624Z,32.97
2018-11-11T09:41:03.917Z,32.43
2018-11-11T09:43:34.107Z,35.10
2018-11-11T09:46:04.551Z,32.70
2018-11-11T09:48:34.889Z,27.47
2018-11-11T09:51:05.061Z,25.00
2018-11-11T09:53:36.003Z,20.97
2018-11-11T09:56:06.109Z,21.20
2018-11-11T09:58:36.102Z,18.43
2018-11-11T10:01:06.343Z,16.10
2018-11-11T10:03:40.790Z,12.47
2018-11-11T10:06:29.469Z,15.73
2018-11-11T10:09:08.279Z,13.50
2018-11-11T10:11:45.352Z,11.93
2018-11-11T10:15:23.868Z,13.17
2018-11-11T10:17:59.013Z,15.53
2018-11-11T10:22:40.844Z,20.53
2018-11-11T10:25:16.180Z,14.10
2018-11-11T10:29:55.497Z,17.43
2018-11-11T10:32:46.930Z,20.40
2018-11-11T10:35:21.167Z,11.23
2018-11-11T10:37:58.769Z,9.87
2018-11-11T10:40:33.957Z,11.53
2018-11-11T10:44:11.570Z,12.30
2018-11-11T10:46:57.536Z,11.17
2018-11-11T10:49:32.822Z,6.80
2018-11-11T10:52:03.096Z,7.00
2018-11-11T10:54:33.223Z,3.57
2018-11-11T10:57:04.266Z,4.03
2018-11-11T10:59:34.214Z,3.73
2018-11-11T11:02:11.120Z,7.53
2018-11-11T11:04:46.213Z,3.83
2018-11-11T11:07:16.388Z,7.63
2018-11-11T11:09:46.645Z,8.47
2018-11-11T11:12:17.481Z,9.70
2018-11-11T11:14:47.622Z,9.10
2018-11-11T11:17:17.882Z,8.67
2018-11-11T11:19:47.879Z,4.37
2018-11-11T11:22:18.169Z,6.20
2018-11-11T11:24:48.292Z,4.93
2018-11-11T11:27:18.583Z,2.17
2018-11-11T11:29:48.751Z,9.23
2018-11-11T11:32:18.990Z,3.37
2018-11-11T11:34:49.332Z,8.27
2018-11-11T11:37:19.636Z,8.93
2018-11-11T11:39:49.912Z,5.40
2018-11-11T11:42:19.993Z,9.77
2018-11-11T11:44:50.074Z,3.03
2018-11-11T11:47:20.256Z,3.43
2018-11-11T11:49:50.605Z,4.43
2018-11-11T11:52:20.981Z,3.13
2018-11-11T11:54:51.187Z,7.73
2018-11-11T11:57:21.290Z,3.60
2018-11-11T11:59:51.439Z,3.47
2018-11-11T12:02:21.843Z,3.40
2018-11-11T12:04:51.986Z,3.37
2018-11-11T12:07:22.009Z,4.07
2018-11-11T12:09:51.952Z,3.40
2018-11-11T12:12:21.914Z,3.90
2018-11-11T12:14:52.006Z,7.03
2018-11-11T12:17:23.118Z,3.80
2018-11-11T12:19:53.093Z,1.93
2018-11-11T12:22:23.306Z,2.53
2018-11-11T12:24:53.433Z,4.57
2018-11-11T12:27:23.862Z,8.23
2018-11-11T12:29:54.067Z,3.80
2018-11-11T12:32:24.060Z,3.27
2018-11-11T12:34:54.369Z,3.30
2018-11-11T12:37:24.628Z,6.17
2018-11-11T12:39:54.955Z,6.07
2018-11-11T12:42:24.998Z,3.87
2018-11-11T12:44:55.382Z,3.30
2018-11-11T12:47:25.397Z,10.67
2018-11-11T12:49:55.649Z,5.10
2018-11-11T12:52:25.602Z,3.17
2018-11-11T12:54:55.892Z,4.10
2018-11-11T12:57:26.192Z,3.23
2018-11-11T12:59:56.560Z,2.90
2018-11-11T13:02:26.964Z,3.60
2018-11-11T13:04:57.284Z,4.37
2018-11-11T13:07:27.456Z,7.63
2018-11-11T13:09:57.537Z,8.17
2018-11-11T13:12:28.179Z,8.67
2018-11-11T13:14:58.031Z,6.67
2018-11-11T13:17:28.585Z,7.20
2018-11-11T13:19:58.827Z,6.77
2018-11-11T13:22:29.182Z,4.43
2018-11-11T13:24:59.062Z,8.07
2018-11-11T13:27:29.184Z,7.97
2018-11-11T13:29:59.405Z,7.80
2018-11-11T13:32:29.520Z,5.80
2018-11-11T13:34:59.789Z,5.07
2018-11-11T13:37:29.788Z,6.13
2018-11-11T13:40:00.116Z,7.57
2018-11-11T13:42:30.266Z,7.63
2018-11-11T13:45:00.614Z,6.23
2018-11-11T13:47:30.788Z,6.50
2018-11-11T13:50:00.797Z,7.37
2018-11-11T13:52:31.041Z,6.93
2018-11-11T13:55:00.871Z,10.77
2018-11-11T13:57:31.178Z,10.27
2018-11-11T14:00:01.338Z,7.80
2018-11-11T14:02:31.857Z,8.30
2018-11-11T14:05:01.920Z,6.10
2018-11-11T14:07:32.136Z,6.80
2018-11-11T14:10:02.748Z,6.73
2018-11-11T14:12:32.981Z,8.70
2018-11-11T14:15:03.672Z,17.87
2018-11-11T14:17:33.740Z,6.67
2018-11-11T14:20:04.175Z,7.40
2018-11-11T14:22:34.391Z,8.40
2018-11-11T14:25:04.604Z,12.50
2018-11-11T14:27:34.633Z,10.73
2018-11-11T14:30:05.231Z,8.43
2018-11-11T14:32:35.462Z,14.53
2018-11-11T14:35:05.861Z,11.33
2018-11-11T14:37:36.145Z,10.30
2018-11-11T14:40:08.878Z,10.03
2018-11-11T14:42:39.217Z,10.40
2018-11-11T14:45:10.520Z,9.30
2018-11-11T14:47:41.599Z,14.30
2018-11-11T14:50:13.045Z,10.50
2018-11-11T14:52:43.888Z,9.77
2018-11-11T14:55:15.861Z,7.90
2018-11-11T14:57:46.013Z,8.40
2018-11-11T15:00:18.674Z,8.07
2018-11-11T15:02:56.747Z,7.80
2018-11-11T15:05:27.178Z,9.20
2018-11-11T15:07:57.229Z,8.63
2018-11-11T15:10:27.416Z,8.20
2018-11-11T15:12:57.505Z,9.13
2018-11-11T15:15:27.645Z,11.70
2018-11-11T15:17:59.183Z,16.83
2018-11-11T15:20:29.509Z,8.40
2018-11-11T15:22:59.662Z,11.47
2018-11-11T15:25:30.756Z,9.77
2018-11-11T15:28:00.988Z,8.90
2018-11-11T15:30:32.435Z,9.33
2018-11-11T15:33:03.280Z,7.67
2018-11-11T15:35:33.478Z,9.77
2018-11-11T15:38:04.218Z,16.23
2018-11-11T15:40:35.887Z,11.50
2018-11-11T15:43:06.092Z,13.00
2018-11-11T15:45:35.909Z,25.20
2018-11-11T15:48:06.559Z,91.70
2018-11-11T15:50:37.399Z,63.53
2018-11-11T15:53:08.776Z,39.87
2018-11-11T15:55:40.109Z,51.63
2018-11-11T15:58:10.471Z,38.63
2018-11-11T16:00:42.231Z,41.43
2018-11-11T16:03:12.444Z,29.90
2018-11-11T16:05:42.780Z,29.33
2018-11-11T16:08:13.418Z,29.97
2018-11-11T16:10:43.470Z,22.53
2018-11-11T16:13:13.776Z,28.53
2018-11-11T16:15:44.381Z,32.17
2018-11-11T16:18:15.175Z,19.90
2018-11-11T16:20:45.462Z,17.80
2018-11-11T16:23:15.654Z,16.10
2018-11-11T16:25:45.665Z,18.90
2018-11-11T16:28:16.341Z,21.00
2018-11-11T16:30:46.446Z,27.50
2018-11-11T16:33:16.522Z,25.20
2018-11-11T16:35:46.683Z,21.37
2018-11-11T16:38:16.888Z,13.40
2018-11-11T16:40:47.092Z,10.53
2018-11-11T16:43:17.681Z,8.57
2018-11-11T16:45:48.909Z,20.00
2018-11-11T16:48:20.858Z,30.37
2018-11-11T16:50:51.758Z,22.93
2018-11-11T16:53:21.839Z,24.50
2018-11-11T16:55:52.170Z,18.90
2018-11-11T16:58:22.501Z,19.17
2018-11-11T17:00:52.990Z,26.93
2018-11-11T17:03:23.651Z,18.57
2018-11-11T17:05:54.000Z,26.00
2018-11-11T17:08:24.146Z,20.50
2018-11-11T17:10:54.334Z,20.47
2018-11-11T17:13:24.891Z,19.63
2018-11-11T17:15:55.245Z,16.67
2018-11-11T17:18:25.752Z,26.43
2018-11-11T17:20:56.078Z,35.97
2018-11-11T17:23:26.677Z,22.90
2018-11-11T17:25:57.435Z,20.33
2018-11-11T17:28:27.906Z,29.23
2018-11-11T17:30:58.589Z,19.57
2018-11-11T17:33:29.342Z,24.70
2018-11-11T17:35:59.812Z,25.83
2018-11-11T17:38:30.534Z,24.33
2018-11-11T17:41:02.563Z,25.50
2018-11-11T17:43:33.080Z,23.43
2018-11-11T17:46:03.350Z,26.07
2018-11-11T17:48:33.558Z,25.57
2018-11-11T17:51:03.883Z,29.17
2018-11-11T17:53:34.174Z,25.43
2018-11-11T17:56:04.639Z,32.80
2018-11-11T17:58:34.949Z,25.47
2018-11-11T18:01:05.630Z,32.60
2018-11-11T18:03:35.684Z,32.87
2018-11-11T18:06:05.991Z,35.80
2018-11-11T18:08:36.548Z,41.03
2018-11-11T18:11:07.144Z,49.77
2018-11-11T18:13:37.485Z,53.25
2018-11-11T18:16:08.056Z,45.03
2018-11-11T18:18:38.469Z,53.10
2018-11-11T18:21:08.820Z,52.30
2018-11-11T18:23:39.340Z,64.00
2018-11-11T18:26:09.601Z,57.33
2018-11-11T18:28:39.973Z,46.73
2018-11-11T18:31:10.541Z,52.20
2018-11-11T18:33:40.888Z,57.37
2018-11-11T18:36:11.976Z,57.33
2018-11-11T18:38:44.080Z,63.17
2018-11-11T18:41:14.513Z,50.83
2018-11-11T18:43:44.814Z,57.80
2018-11-11T18:46:15.164Z,42.93
2018-11-11T18:48:45.536Z,48.67
2018-11-11T18:51:16.005Z,49.73
2018-11-11T18:53:46.569Z,47.60
2018-11-11T18:56:17.094Z,40.63
2018-11-11T18:58:47.420Z,44.10
2018-11-11T19:01:18.093Z,49.30
2018-11-11T19:03:48.490Z,45.20
2018-11-11T19:06:19.178Z,47.00
2018-11-11T19:08:49.934Z,55.73
2018-11-11T19:11:20.607Z,53.90
2018-11-11T19:13:51.038Z,51.40
2018-11-11T19:16:21.472Z,54.97
2018-11-11T19:18:51.927Z,56.47
2018-11-11T19:21:22.171Z,58.37
2018-11-11T19:23:52.638Z,45.80
2018-11-11T19:26:23.432Z,47.67
2018-11-11T19:28:53.811Z,55.13
2018-11-11T19:31:24.133Z,57.13
2018-11-11T19:33:54.541Z,56.80
2018-11-11T19:36:25.220Z,53.33
2018-11-11T19:38:55.625Z,58.80
2018-11-11T19:41:26.241Z,57.43
2018-11-11T19:43:56.670Z,56.13
2018-11-11T19:46:27.057Z,56.37
2018-11-11T19:48:57.607Z,66.90
2018-11-11T19:51:28.177Z,54.10
2018-11-11T19:53:58.865Z,55.13
2018-11-11T19:56:29.622Z,55.93
2018-11-11T19:58:59.824Z,54.73
2018-11-11T20:01:30.202Z,72.27
2018-11-11T20:04:00.404Z,65.27
2018-11-11T20:06:31.394Z,60.70
2018-11-11T20:09:01.767Z,75.37
2018-11-11T20:11:32.444Z,73.37
2018-11-11T20:14:03.079Z,71.07
2018-11-11T20:16:33.761Z,66.97
2018-11-11T20:19:04.349Z,71.17
2018-11-11T20:21:34.918Z,69.53
2018-11-11T20:24:05.420Z,75.30
2018-11-11T20:26:35.947Z,73.60
2018-11-11T20:29:07.169Z,66.73
2018-11-11T20:31:38.096Z,69.23
2018-11-11T20:34:08.187Z,76.03
2018-11-11T20:36:38.667Z,68.70
2018-11-11T20:39:11.678Z,71.77
2018-11-11T20:41:42.127Z,76.37
2018-11-11T20:44:13.471Z,95.87
2018-11-11T20:46:43.824Z,94.50
2018-11-11T20:49:15.144Z,91.80
2018-11-11T20:51:45.989Z,89.70
2018-11-11T20:54:16.366Z,103.70
2018-11-11T20:56:47.093Z,102.43
2018-11-11T20:59:17.411Z,100.07
2018-11-11T21:01:47.868Z,95.37
2018-11-11T21:04:18.188Z,104.43
2018-11-11T21:06:49.129Z,86.40
2018-11-11T21:09:19.584Z,64.27
2018-11-11T21:11:50.268Z,72.53
2018-11-11T21:14:21.134Z,41.63
2018-11-11T21:16:51.669Z,25.67
2018-11-11T21:19:22.202Z,24.90
2018-11-11T21:21:52.740Z,16.93
2018-11-11T21:24:23.063Z,15.90
2018-11-11T21:26:53.662Z,14.00
2018-11-11T21:29:24.002Z,20.83
2018-11-11T21:31:54.389Z,14.83
2018-11-11T21:34:24.722Z,14.13
2018-11-11T21:36:55.326Z,14.93
2018-11-11T21:39:25.572Z,13.50
2018-11-11T21:41:56.150Z,14.30
2018-11-11T21:44:26.373Z,16.50
2018-11-11T21:46:57.658Z,13.53
2018-11-11T21:49:28.131Z,12.80
2018-11-11T21:51:58.538Z,10.40
2018-11-11T21:54:29.203Z,7.83
2018-11-11T21:56:59.784Z,7.10
2018-11-11T21:59:30.265Z,8.37
2018-11-11T22:02:00.601Z,7.93
2018-11-11T22:04:30.786Z,5.20
2018-11-11T22:07:01.944Z,7.63
2018-11-11T22:09:32.415Z,7.40
2018-11-11T22:12:03.591Z,5.10
2018-11-11T22:14:33.995Z,7.00
2018-11-11T22:17:04.345Z,8.50
2018-11-11T22:19:34.780Z,7.93
2018-11-11T22:22:05.376Z,9.20
2018-11-11T22:24:35.643Z,12.63
2018-11-11T22:27:06.332Z,13.87
2018-11-11T22:29:36.759Z,7.80
2018-11-11T22:32:07.576Z,7.53
2018-11-11T22:34:38.098Z,7.67
2018-11-11T22:37:09.580Z,7.60
2018-11-11T22:39:40.065Z,6.93
2018-11-11T22:42:10.634Z,6.50
2018-11-11T22:44:40.903Z,11.17
2018-11-11T22:47:11.583Z,7.40
2018-11-11T22:49:41.955Z,10.77
2018-11-11T22:52:12.332Z,10.90
2018-11-11T22:54:42.741Z,11.93
2018-11-11T22:57:13.325Z,7.93
2018-11-11T22:59:43.585Z,7.10
2018-11-11T23:02:14.292Z,8.97
2018-11-11T23:04:44.865Z,8.50
2018-11-11T23:07:15.167Z,8.80
2018-11-11T23:09:45.323Z,19.33
2018-11-11T23:12:15.793Z,10.30
2018-11-11T23:14:46.070Z,9.00
2018-11-11T23:17:16.461Z,12.33
2018-11-11T23:19:46.857Z,12.10
2018-11-11T23:22:17.681Z,12.17
2018-11-11T23:24:48.132Z,11.97
2018-11-11T23:27:18.481Z,14.53
2018-11-11T23:29:49.041Z,7.77
2018-11-11T23:32:19.513Z,9.60
2018-11-11T23:34:50.201Z,13.43
2018-11-11T23:37:21.076Z,13.27
2018-11-11T23:39:51.579Z,9.53
2018-11-11T23:42:22.074Z,9.87
2018-11-11T23:44:52.838Z,12.20
2018-11-11T23:47:23.135Z,7.73
2018-11-11T23:49:54.035Z,9.97
2018-11-11T23:52:24.439Z,9.57
2018-11-11T23:54:55.117Z,13.67
2018-11-11T23:57:25.406Z,10.10
2018-11-11T23:59:56.065Z,9.67
